KAIG

Details ICAO KAIG
Name LANGLADE CO
Region United States
Timezone America/Chicago (UTC-6.0)
Plans Departing 0
Arriving 0
Stats Elevation 1,521 ft / 464 m (AMSL)
Location 45.154174° -89.110911°
Runways 2
Magnetic Variation 3.278° W
Sunrise 2017-12-17 13:31:22 UTC / 2017-12-17 07:31:22 Local
Sunset 2017-12-17 22:16:44 UTC / 2017-12-17 16:16:44 Local
Advertisement - Login to hide

Runways

ID Width Length Bearing (true) Bearing (mag) Surface Threshold Offset Overrun Length
08 75 ft / 23 m 3,392 ft / 1,034 m 82.58° 85.86° Asphalt 0 ft / 0 m 0 ft / 0 m
16 75 ft / 23 m 4,004 ft / 1,220 m 163.64° 166.92° Asphalt 0 ft / 0 m 0 ft / 0 m
26 75 ft / 23 m 3,392 ft / 1,034 m 262.59° 265.87° Asphalt 0 ft / 0 m 0 ft / 0 m
34 75 ft / 23 m 4,004 ft / 1,220 m 343.65° 346.93° Asphalt 0 ft / 0 m 0 ft / 0 m

Map

Weather


0- 5 10 15 20 25 30 35+ Temperature / ° C

Clouds and Precipitation
Forecast for 2017-12-18 06:00 UTC. Updated 2 hours ago

Ground ~20,000 ft ~40,000 ft Winds

METAR

KAIG 180515Z AUTO 27007KT 2SM BR OVC002 M04/M04 A2990 RMK AO2 T10371037

TAF

Not found

Frequencies

Recorded 119.07 MHz AWOS 3
Unicom 122.80 MHz CTAF/UNICOM
Warning: Do not use this data for real-world aviation or navigation. No guarantee of current accuracy is given.